Time;durP1;ratioP1;P1;durP2;ratioP2;P2;SDS_P1;SDS_P2;PMS_P1;PMS_P2;Temp;Humidity;BMP_temperature;BMP_pressure;BME280_temperature;BME280_humidity;BME280_pressure;Samples;Min_cycle;Max_cycle;Signal;HPM_P1;HPM_P2
2024/04/26 00:00:06;;;;;;;7.55;3.72;;;;;;;11.01;100.00;99348.78;5486636;26;20093;-78
2024/04/26 00:02:33;;;;;;;6.97;4.20;;;;;;;11.06;100.00;99351.56;5486113;26;20006;-79
2024/04/26 00:04:58;;;;;;;5.72;3.65;;;;;;;10.75;100.00;99326.19;5503140;26;20065;-80
2024/04/26 00:07:23;;;;;;;5.85;3.70;;;;;;;11.02;100.00;99369.09;5494357;26;20335;-79
2024/04/26 00:09:49;;;;;;;7.45;4.22;;;;;;;11.03;100.00;99370.69;5484739;26;19998;-78
2024/04/26 00:12:15;;;;;;;6.75;3.80;;;;;;;10.90;100.00;99355.00;5486134;26;20334;-80
2024/04/26 00:14:41;;;;;;;5.97;4.05;;;;;;;10.60;100.00;99332.84;5485557;26;19998;-78
2024/04/26 00:17:07;;;;;;;6.05;3.65;;;;;;;10.69;100.00;99359.13;5486147;26;19998;-78
2024/04/26 00:19:33;;;;;;;7.68;4.15;;;;;;;10.80;100.00;99369.75;5486628;26;20014;-78
2024/04/26 00:21:58;;;;;;;7.65;4.20;;;;;;;11.08;100.00;99378.81;5486057;26;20330;-79
2024/04/26 00:24:23;;;;;;;6.47;4.20;;;;;;;11.15;100.00;99384.00;5485460;26;20327;-79
2024/04/26 00:26:50;;;;;;;6.80;3.83;;;;;;;11.08;100.00;99362.81;5485653;26;20005;-78
2024/04/26 00:29:17;;;;;;;6.70;4.30;;;;;;;10.82;100.00;99332.97;5485837;26;20287;-80
2024/04/26 00:31:42;;;;;;;6.38;4.07;;;;;;;10.86;100.00;99352.78;5483998;26;20075;-79
2024/04/26 00:34:08;;;;;;;6.25;3.95;;;;;;;10.67;100.00;99340.69;5485856;26;20439;-79
2024/04/26 00:36:33;;;;;;;7.05;4.18;;;;;;;10.98;100.00;99381.28;5486090;26;20066;-79
2024/04/26 00:38:58;;;;;;;6.50;4.28;;;;;;;10.84;100.00;99389.56;5483671;26;19995;-80
2024/04/26 00:41:24;;;;;;;6.85;3.97;;;;;;;10.77;100.00;99372.91;5484460;26;19994;-78
2024/04/26 00:44:06;;;;;;;6.78;3.85;;;;;;;10.64;100.00;99358.00;5485849;26;20673;-80
2024/04/26 00:46:32;;;;;;;6.90;4.50;;;;;;;10.86;100.00;99382.13;5449659;26;20405;-79
2024/04/26 00:48:57;;;;;;;6.85;4.30;;;;;;;10.88;100.00;99399.78;5449710;26;20014;-79
2024/04/26 00:51:23;;;;;;;8.15;4.40;;;;;;;10.53;100.00;99369.47;5472148;26;19994;-79
2024/04/26 00:53:48;;;;;;;7.90;5.10;;;;;;;10.78;100.00;99397.72;5485406;26;20013;-78
2024/04/26 00:56:14;;;;;;;7.18;4.72;;;;;;;10.76;100.00;99397.94;5486886;26;20024;-78
2024/04/26 00:58:41;;;;;;;8.00;5.05;;;;;;;10.76;100.00;99419.28;5489890;26;20010;-79
2024/04/26 01:01:07;;;;;;;8.40;4.78;;;;;;;10.58;100.00;99379.44;5487419;26;20010;-79
2024/04/26 01:03:32;;;;;;;8.48;5.57;;;;;;;10.56;100.00;99416.19;5488844;26;20399;-78
2024/04/26 01:05:59;;;;;;;7.00;4.57;;;;;;;10.31;100.00;99389.81;5488941;26;19998;-78
2024/04/26 01:08:24;;;;;;;26.08;6.07;;;;;;;10.20;100.00;99396.75;5487266;26;20010;-79
2024/04/26 01:10:49;;;;;;;7.85;5.00;;;;;;;10.55;100.00;99417.25;5489070;26;20100;-80
2024/04/26 01:13:15;;;;;;;7.65;4.93;;;;;;;10.56;100.00;99413.53;5488896;26;20335;-78
2024/04/26 01:15:40;;;;;;;6.88;4.78;;;;;;;10.50;100.00;99433.13;5488993;26;20017;-78
2024/04/26 01:18:06;;;;;;;8.68;5.07;;;;;;;9.98;100.00;99413.28;5489151;26;20268;-78
2024/04/26 01:20:31;;;;;;;8.10;4.70;;;;;;;9.88;100.00;99418.38;5488662;26;20079;-79
2024/04/26 01:22:59;;;;;;;6.70;4.60;;;;;;;9.94;100.00;99438.75;5488458;26;20361;-78
2024/04/26 01:25:24;;;;;;;8.37;5.23;;;;;;;9.64;100.00;99407.72;5488622;26;20013;-78
2024/04/26 01:27:50;;;;;;;8.68;5.03;;;;;;;10.02;100.00;99445.63;5487292;26;20352;-79
2024/04/26 01:30:18;;;;;;;7.70;4.82;;;;;;;10.01;100.00;99455.47;5488546;26;19994;-80
2024/04/26 01:32:44;;;;;;;9.02;5.57;;;;;;;10.11;100.00;99444.22;5488379;26;20321;-79
2024/04/26 01:35:09;;;;;;;8.80;6.15;;;;;;;10.03;100.00;99458.72;5499577;26;20007;-79
2024/04/26 01:37:35;;;;;;;8.65;5.65;;;;;;;9.98;100.00;99447.91;5525395;25;20009;-79
2024/04/26 01:40:01;;;;;;;8.05;5.28;;;;;;;9.72;100.00;99427.84;5525542;25;19997;-79
2024/04/26 01:42:29;;;;;;;8.10;6.13;;;;;;;9.90;100.00;99437.59;5490633;25;20012;-78
2024/04/26 01:44:55;;;;;;;8.00;5.72;;;;;;;10.01;100.00;99455.47;5495053;26;20078;-79
2024/04/26 01:47:20;;;;;;;9.68;5.95;;;;;;;10.00;100.00;99453.81;5525363;25;20421;-80
2024/04/26 01:49:46;;;;;;;10.05;6.40;;;;;;;9.97;100.00;99451.63;5525488;25;20033;-79
2024/04/26 01:52:11;;;;;;;10.23;6.75;;;;;;;9.77;100.00;99440.50;5495166;25;20021;-79
2024/04/26 01:54:36;;;;;;;7.82;5.60;;;;;;;9.93;100.00;99453.13;5489566;26;19998;-79
2024/04/26 01:57:02;;;;;;;8.52;5.47;;;;;;;9.97;100.00;99456.97;5510153;25;19998;-78
2024/04/26 01:59:27;;;;;;;9.65;6.10;;;;;;;10.06;100.00;99463.56;5488412;26;20017;-78
2024/04/26 02:01:53;;;;;;;9.40;5.80;;;;;;;10.04;100.00;99481.63;5488380;26;20002;-79
2024/04/26 02:04:18;;;;;;;9.23;5.65;;;;;;;10.10;100.00;99471.91;5488243;26;20013;-78
2024/04/26 02:06:43;;;;;;;9.23;6.53;;;;;;;10.06;100.00;99474.22;5520192;26;20438;-79
2024/04/26 02:09:09;;;;;;;9.13;5.90;;;;;;;9.89;100.00;99478.59;5524943;25;20001;-79
2024/04/26 02:11:35;;;;;;;8.73;6.53;;;;;;;9.92;100.00;99480.81;5506379;25;19998;-79
2024/04/26 02:14:01;;;;;;;10.23;5.95;;;;;;;9.72;100.00;99482.94;5487813;26;19994;-79
2024/04/26 02:16:26;;;;;;;9.50;6.28;;;;;;;9.59;100.00;99468.78;5515263;26;20077;-81
2024/04/26 02:18:52;;;;;;;9.30;6.25;;;;;;;9.71;100.00;99444.06;5523443;26;20005;-79
2024/04/26 02:21:19;;;;;;;10.23;6.60;;;;;;;9.84;100.00;99471.28;5511582;25;19998;-79
2024/04/26 02:23:44;;;;;;;9.73;6.13;;;;;;;9.92;100.00;99478.13;5488076;26;20017;-79
2024/04/26 02:26:19;;;;;;;10.18;6.15;;;;;;;9.97;100.00;99485.44;5510700;26;19997;-78
2024/04/26 02:28:44;;;;;;;9.60;5.80;;;;;;;9.73;100.00;99487.25;5523376;26;20002;-79
2024/04/26 02:31:11;;;;;;;9.27;6.03;;;;;;;9.40;100.00;99472.56;5514430;25;20370;-80
2024/04/26 02:33:36;;;;;;;10.18;6.15;;;;;;;9.69;100.00;99510.03;5487960;26;20030;-79
2024/04/26 02:36:03;;;;;;;9.77;6.72;;;;;;;9.65;100.00;99515.81;5480530;26;19994;-78
2024/04/26 02:38:28;;;;;;;9.43;6.57;;;;;;;9.61;100.00;99511.16;5467318;26;20072;-79
2024/04/26 02:40:54;;;;;;;9.52;5.85;;;;;;;9.71;100.00;99521.28;5457069;26;19990;-79
2024/04/26 02:43:19;;;;;;;9.10;5.90;;;;;;;9.58;100.00;99498.28;5487862;26;19997;-80
2024/04/26 02:45:44;;;;;;;11.05;6.93;;;;;;;9.85;100.00;99528.03;5501584;26;20002;-78
2024/04/26 02:48:10;;;;;;;9.90;6.18;;;;;;;9.73;100.00;99521.88;5524588;25;20005;-78
2024/04/26 02:50:35;;;;;;;12.63;6.90;;;;;;;9.67;100.00;99517.44;5524300;25;20009;-80
2024/04/26 02:53:02;;;;;;;9.20;6.47;;;;;;;9.54;100.00;99502.44;5487559;26;20502;-78
2024/04/26 02:55:28;;;;;;;11.63;6.43;;;;;;;9.71;100.00;99515.97;5485788;26;19994;-78
2024/04/26 02:57:53;;;;;;;12.52;7.45;;;;;;;9.64;100.00;99526.69;5486021;26;19998;-78
2024/04/26 03:00:19;;;;;;;12.23;6.63;;;;;;;9.36;100.00;99509.44;5485930;26;20005;-78
2024/04/26 03:02:46;;;;;;;10.57;7.22;;;;;;;9.23;100.00;99522.91;5486963;26;19993;-78
2024/04/26 03:05:12;;;;;;;10.18;7.00;;;;;;;9.36;100.00;99521.94;5491388;26;20013;-77
2024/04/26 03:07:38;;;;;;;10.68;7.57;;;;;;;9.26;100.00;99538.44;5522380;26;20005;-78
2024/04/26 03:10:03;;;;;;;11.57;6.72;;;;;;;9.17;100.00;99518.47;5524195;25;20362;-78
2024/04/26 03:12:29;;;;;;;11.93;6.93;;;;;;;9.29;100.00;99537.97;5496540;25;19994;-79
2024/04/26 03:14:54;;;;;;;9.60;6.82;;;;;;;9.30;100.00;99538.81;5487051;26;20005;-78
2024/04/26 03:17:20;;;;;;;10.60;6.82;;;;;;;9.11;100.00;99498.09;5487171;26;20005;-78
2024/04/26 03:19:46;;;;;;;10.05;6.95;;;;;;;9.30;100.00;99539.63;5486186;26;19994;-77
2024/04/26 03:22:11;;;;;;;10.45;7.40;;;;;;;9.07;100.00;99519.00;5487453;26;19993;-78
2024/04/26 03:24:40;;;;;;;11.90;7.35;;;;;;;9.31;100.00;99556.38;5487446;26;20085;-78
2024/04/26 03:27:05;;;;;;;10.82;7.45;;;;;;;9.17;100.00;99548.53;5485493;26;20008;-79
2024/04/26 03:29:30;;;;;;;10.35;6.78;;;;;;;9.01;100.00;99573.91;5487697;26;19998;-78
2024/04/26 03:31:56;;;;;;;10.93;7.03;;;;;;;8.98;100.00;99549.59;5487331;26;20006;-78
2024/04/26 03:34:21;;;;;;;10.93;7.32;;;;;;;9.20;100.00;99587.22;5487415;26;20002;-78
2024/04/26 03:36:47;;;;;;;11.23;6.75;;;;;;;9.09;100.00;99570.13;5487327;26;20009;-78
2024/04/26 03:39:13;;;;;;;11.77;7.80;;;;;;;9.06;100.00;99570.56;5487697;26;20013;-78
2024/04/26 03:41:39;;;;;;;11.68;7.25;;;;;;;9.01;100.00;99557.13;5487250;26;20001;-78
2024/04/26 03:44:04;;;;;;;15.45;8.52;;;;;;;9.09;100.00;99558.66;5488351;26;20350;-78
2024/04/26 03:46:30;;;;;;;12.23;7.80;;;;;;;8.89;100.00;99564.19;5495973;26;20006;-78
2024/04/26 03:48:55;;;;;;;12.50;8.10;;;;;;;9.15;100.00;99565.78;5497599;26;20002;-78
2024/04/26 03:51:21;;;;;;;11.00;7.82;;;;;;;9.00;100.00;99576.78;5496870;26;19998;-78
2024/04/26 03:53:46;;;;;;;15.35;8.30;;;;;;;9.19;100.00;99602.38;5495617;26;20010;-78
2024/04/26 03:56:12;;;;;;;12.75;7.93;;;;;;;9.08;100.00;99595.09;5495484;26;20013;-78
2024/04/26 03:58:40;;;;;;;12.82;8.40;;;;;;;9.14;100.00;99620.81;5494310;26;20002;-78
2024/04/26 04:01:06;;;;;;;12.13;7.75;;;;;;;9.16;100.00;99618.75;5495138;26;20012;-78
2024/04/26 04:03:31;;;;;;;10.27;7.60;;;;;;;9.01;100.00;99605.00;5500265;26;20006;-79
2024/04/26 04:05:57;;;;;;;13.00;8.13;;;;;;;9.24;100.00;99615.81;5510877;26;20661;-78
2024/04/26 04:08:22;;;;;;;13.07;9.02;;;;;;;9.36;100.00;99617.75;5535778;26;20005;-78
2024/04/26 04:10:48;;;;;;;14.00;8.43;;;;;;;9.47;100.00;99621.50;5538050;25;20050;-78
2024/04/26 04:13:20;;;;;;;13.68;8.90;;;;;;;9.57;100.00;99621.81;5503290;25;20474;-79
2024/04/26 04:15:45;;;;;;;12.35;8.20;;;;;;;9.64;100.00;99630.50;5499131;26;19998;-78
2024/04/26 04:18:11;;;;;;;14.27;9.15;;;;;;;9.88;100.00;99636.78;5500475;26;20608;-78
2024/04/26 04:20:37;;;;;;;11.88;8.27;;;;;;;9.98;100.00;99630.91;5498769;26;20009;-78
2024/04/26 04:23:02;;;;;;;14.30;9.00;;;;;;;10.03;100.00;99645.19;5498803;26;20012;-78
2024/04/26 04:25:28;;;;;;;12.05;8.25;;;;;;;9.98;100.00;99630.91;5497912;26;19999;-80
2024/04/26 04:27:53;;;;;;;14.43;9.27;;;;;;;10.26;100.00;99648.97;5497194;26;19998;-78
2024/04/26 04:30:19;;;;;;;11.63;8.10;;;;;;;10.16;100.00;99654.84;5489291;26;20021;-79
2024/04/26 04:32:44;;;;;;;11.52;7.88;;;;;;;10.26;100.00;99640.97;5491112;26;20002;-79
2024/04/26 04:35:10;;;;;;;13.40;8.27;;;;;;;10.12;100.00;99627.03;5490748;26;20012;-79
2024/04/26 04:37:35;;;;;;;12.30;9.02;;;;;;;10.40;100.00;99642.44;5490953;26;20013;-79
2024/04/26 04:40:01;;;;;;;12.13;8.82;;;;;;;10.44;100.00;99632.94;5490800;26;20430;-79
2024/04/26 04:42:26;;;;;;;13.35;8.75;;;;;;;10.35;100.00;99668.97;5490129;26;20066;-79
2024/04/26 04:44:51;;;;;;;15.77;9.18;;;;;;;10.51;100.00;99651.50;5488294;26;19998;-79
2024/04/26 04:47:17;;;;;;;13.07;9.63;;;;;;;10.51;100.00;99642.69;5489920;26;20006;-79
2024/04/26 04:49:42;;;;;;;14.45;9.45;;;;;;;10.54;100.00;99650.22;5489407;26;20002;-79
2024/04/26 04:52:08;;;;;;;12.98;8.75;;;;;;;10.50;100.00;99646.41;5489697;26;19998;-77
2024/04/26 04:54:34;;;;;;;12.20;9.38;;;;;;;10.65;100.00;99660.13;5490162;26;20002;-79
2024/04/26 04:57:00;;;;;;;13.70;9.60;;;;;;;10.47;100.00;99670.84;5487281;26;20002;-79
2024/04/26 04:59:25;;;;;;;13.15;9.02;;;;;;;10.67;100.00;99676.69;5488201;26;20446;-79
2024/04/26 05:01:50;;;;;;;14.60;9.07;;;;;;;10.71;100.00;99677.88;5487634;26;20438;-79
2024/04/26 05:04:16;;;;;;;13.55;9.32;;;;;;;10.92;100.00;99683.69;5489050;26;19998;-79
2024/04/26 05:06:41;;;;;;;13.43;9.60;;;;;;;10.88;100.00;99671.88;5489226;26;20009;-79
2024/04/26 05:09:07;;;;;;;13.55;9.60;;;;;;;10.97;100.00;99699.81;5488701;26;20013;-79
2024/04/26 05:11:34;;;;;;;14.48;9.63;;;;;;;10.95;100.00;99700.06;5489258;26;20071;-79
2024/04/26 05:13:59;;;;;;;13.27;9.60;;;;;;;11.14;100.00;99691.97;5484140;26;20035;-79
2024/04/26 05:16:24;;;;;;;13.68;9.88;;;;;;;11.39;100.00;99705.88;5488902;26;19998;-79
2024/04/26 05:18:50;;;;;;;13.13;9.30;;;;;;;11.40;100.00;99707.50;5488818;26;20008;-80
2024/04/26 05:21:15;;;;;;;16.10;9.93;;;;;;;11.08;100.00;99677.69;5489372;26;19998;-79
2024/04/26 05:23:41;;;;;;;14.20;9.40;;;;;;;11.50;100.00;99703.44;5489179;26;20113;-79
2024/04/26 05:26:06;;;;;;;14.50;9.90;;;;;;;11.59;100.00;99716.19;5488975;26;20002;-79
2024/04/26 05:28:32;;;;;;;14.45;9.50;;;;;;;11.97;100.00;99724.75;5487078;26;20013;-79
2024/04/26 05:30:59;;;;;;;13.95;10.00;;;;;;;12.01;100.00;99713.38;5489164;26;21016;-78
2024/04/26 05:33:24;;;;;;;13.30;9.40;;;;;;;11.93;100.00;99691.53;5489309;26;19994;-78
2024/04/26 05:35:50;;;;;;;16.25;9.65;;;;;;;12.10;100.00;99731.72;5488726;26;20009;-79
2024/04/26 05:38:15;;;;;;;14.35;9.43;;;;;;;12.02;100.00;99714.97;5465043;26;20246;-79
2024/04/26 05:40:42;;;;;;;13.63;9.38;;;;;;;12.00;100.00;99709.06;5450812;26;20075;-78
2024/04/26 05:43:07;;;;;;;14.05;9.77;;;;;;;12.27;100.00;99711.19;5487745;26;20324;-79
2024/04/26 05:45:34;;;;;;;12.32;8.75;;;;;;;12.42;100.00;99714.16;5488685;26;20074;-80
2024/04/26 05:47:59;;;;;;;11.45;8.57;;;;;;;12.46;100.00;99720.66;5488278;26;20006;-79
2024/04/26 05:50:25;;;;;;;13.07;9.43;;;;;;;12.55;100.00;99722.94;5488446;26;19998;-79
2024/04/26 05:52:50;;;;;;;13.32;9.38;;;;;;;12.62;100.00;99718.22;5487786;26;19990;-80
2024/04/26 05:55:16;;;;;;;13.95;9.45;;;;;;;12.90;100.00;99746.00;5488409;26;19994;-79
2024/04/26 05:57:42;;;;;;;13.07;9.63;;;;;;;13.13;100.00;99735.13;5486173;26;20014;-78
2024/04/26 06:00:08;;;;;;;11.52;8.32;;;;;;;13.09;100.00;99760.78;5482093;26;20070;-79
2024/04/26 06:02:33;;;;;;;12.82;9.38;;;;;;;13.03;100.00;99751.03;5475532;26;20017;-79
2024/04/26 06:05:00;;;;;;;13.15;9.20;;;;;;;13.11;100.00;99766.69;5487450;26;20034;-79
2024/04/26 06:07:26;;;;;;;15.27;10.52;;;;;;;13.15;100.00;99751.78;5487757;26;19998;-79
2024/04/26 06:09:51;;;;;;;12.75;8.77;;;;;;;13.02;100.00;99746.75;5477401;26;20075;-79
2024/04/26 06:12:17;;;;;;;11.57;8.45;;;;;;;13.41;100.00;99773.63;5486724;26;19990;-79
2024/04/26 06:14:42;;;;;;;12.75;8.70;;;;;;;13.28;100.00;99753.31;5487932;26;20327;-80
2024/04/26 06:17:08;;;;;;;12.05;8.15;;;;;;;13.46;100.00;99773.69;5490327;26;20009;-78
2024/04/26 06:19:33;;;;;;;15.93;9.75;;;;;;;13.41;100.00;99776.31;5487825;26;20453;-79
2024/04/26 06:22:00;;;;;;;14.05;9.00;;;;;;;13.64;100.00;99799.41;5488069;26;20009;-79
2024/04/26 06:24:25;;;;;;;13.75;8.90;;;;;;;13.77;100.00;99782.19;5485802;26;19994;-80
2024/04/26 06:26:51;;;;;;;11.50;8.30;;;;;;;13.80;100.00;99785.19;5487368;26;20004;-79
2024/04/26 06:29:16;;;;;;;13.27;8.77;;;;;;;13.88;100.00;99767.88;5487799;26;20398;-81
2024/04/26 06:31:42;;;;;;;13.18;9.13;;;;;;;14.00;100.00;99781.16;5487683;26;20478;-79
2024/04/26 06:34:07;;;;;;;11.55;8.65;;;;;;;14.16;100.00;99782.97;5487384;26;19990;-80
2024/04/26 06:36:33;;;;;;;11.73;8.20;;;;;;;14.16;100.00;99801.75;5486084;26;19990;-79
2024/04/26 06:38:58;;;;;;;11.70;8.25;;;;;;;13.93;100.00;99773.28;5488118;26;20005;-80
2024/04/26 06:41:24;;;;;;;11.13;7.70;;;;;;;14.25;100.00;99781.47;5487247;26;20002;-79
2024/04/26 06:43:49;;;;;;;12.00;8.50;;;;;;;14.61;100.00;99791.84;5487912;26;20010;-79
2024/04/26 06:46:15;;;;;;;10.77;7.85;;;;;;;14.59;100.00;99772.50;5487811;26;20312;-79
2024/04/26 06:48:40;;;;;;;11.65;8.38;;;;;;;14.45;100.00;99778.22;5488175;26;20071;-82
2024/04/26 06:51:06;;;;;;;10.57;7.35;;;;;;;14.50;100.00;99795.44;5487708;26;20113;-78
2024/04/26 06:53:31;;;;;;;10.90;7.82;;;;;;;14.61;100.00;99786.47;5477014;26;19998;-80
2024/04/26 06:55:57;;;;;;;12.05;7.55;;;;;;;14.59;100.00;99767.94;5482918;26;20010;-78
2024/04/26 06:58:23;;;;;;;10.20;7.10;;;;;;;14.70;100.00;99784.97;5487589;26;20002;-79
2024/04/26 07:00:49;;;;;;;10.68;7.15;;;;;;;14.82;100.00;99777.56;5454726;26;20419;-78
2024/04/26 07:03:14;;;;;;;11.50;7.35;;;;;;;14.96;100.00;99788.72;5467523;26;20010;-79
2024/04/26 07:05:40;;;;;;;10.80;7.57;;;;;;;14.84;100.00;99740.53;5487715;26;19998;-78
2024/04/26 07:08:06;;;;;;;10.35;7.65;;;;;;;14.96;100.00;99777.16;5513976;26;20008;-81
2024/04/26 07:10:32;;;;;;;11.25;7.63;;;;;;;15.18;100.00;99802.06;5492352;25;20021;-80
2024/04/26 07:12:57;;;;;;;11.70;8.25;;;;;;;15.20;100.00;99793.72;5475361;26;19994;-80
2024/04/26 07:15:23;;;;;;;10.75;7.63;;;;;;;15.27;100.00;99794.34;5487396;26;20358;-79
2024/04/26 07:17:50;;;;;;;9.27;7.03;;;;;;;15.26;100.00;99785.47;5508581;26;20009;-79
2024/04/26 07:20:16;;;;;;;9.63;6.75;;;;;;;15.13;100.00;99785.88;5524298;25;20012;-78
2024/04/26 07:22:42;;;;;;;9.20;7.10;;;;;;;15.27;100.00;99799.72;5522571;26;20334;-79
2024/04/26 07:25:08;;;;;;;9.90;7.22;;;;;;;15.09;100.00;99755.25;5489431;25;20511;-79
2024/04/26 07:27:33;;;;;;;9.07;6.50;;;;;;;15.23;100.00;99809.34;5485143;26;20002;-80
2024/04/26 07:29:59;;;;;;;10.07;6.68;;;;;;;15.29;100.00;99770.72;5484083;26;20001;-79
2024/04/26 07:32:24;;;;;;;9.57;6.97;;;;;;;15.34;100.00;99788.75;5483453;26;19998;-76
2024/04/26 07:34:49;;;;;;;9.43;6.53;;;;;;;15.90;100.00;99805.28;5484504;26;20009;-80
2024/04/26 07:37:15;;;;;;;8.45;6.22;;;;;;;15.94;100.00;99798.31;5484810;26;20013;-79
2024/04/26 07:39:40;;;;;;;10.30;6.10;;;;;;;15.90;85.65;99797.22;5483465;26;20009;-78
2024/04/26 07:42:08;;;;;;;9.38;6.40;;;;;;;16.27;80.64;99821.34;5485190;26;20004;-80
2024/04/26 07:44:34;;;;;;;9.90;6.20;;;;;;;16.10;83.33;99803.75;5485046;26;20017;-80
2024/04/26 07:46:59;;;;;;;9.27;6.57;;;;;;;16.30;84.21;99803.84;5486434;26;20006;-79
2024/04/26 07:49:30;;;;;;;9.45;6.20;;;;;;;16.25;78.90;99809.22;5467526;26;20002;-79
2024/04/26 07:51:55;;;;;;;11.13;6.63;;;;;;;16.14;84.60;99794.94;5450313;26;20348;-78
2024/04/26 07:54:21;;;;;;;8.95;6.28;;;;;;;16.27;87.18;99817.84;5479584;26;20042;-77
2024/04/26 07:56:47;;;;;;;9.40;6.38;;;;;;;16.61;83.92;99830.88;5474703;26;20009;-79
2024/04/26 07:59:12;;;;;;;9.45;6.22;;;;;;;16.54;78.76;99800.72;5506115;25;20005;-79
2024/04/26 08:01:37;;;;;;;8.90;5.85;;;;;;;16.92;76.39;99839.06;5487063;26;20002;-79
2024/04/26 08:04:03;;;;;;;8.82;6.45;;;;;;;16.68;76.99;99829.56;5475403;26;20071;-78
2024/04/26 08:06:30;;;;;;;9.38;6.05;;;;;;;16.90;77.27;99830.44;5486237;26;20593;-79
2024/04/26 08:08:55;;;;;;;9.55;6.50;;;;;;;17.27;80.76;99814.06;5520318;26;20005;-79
2024/04/26 08:11:21;;;;;;;9.13;6.95;;;;;;;17.35;83.00;99818.91;5521791;26;19993;-80
2024/04/26 08:13:46;;;;;;;8.43;5.65;;;;;;;17.45;75.14;99827.00;5503637;25;19998;-79
2024/04/26 08:16:12;;;;;;;9.55;6.05;;;;;;;17.39;80.16;99814.59;5484071;26;20049;-79
2024/04/26 08:18:38;;;;;;;8.93;6.22;;;;;;;17.57;75.38;99817.81;5512532;26;20311;-80
2024/04/26 08:21:04;;;;;;;8.50;5.82;;;;;;;17.46;76.03;99803.53;5498425;25;19995;-77
2024/04/26 08:23:29;;;;;;;8.65;5.78;;;;;;;17.93;74.66;99824.00;5475729;26;20445;-79
2024/04/26 08:25:55;;;;;;;9.20;5.70;;;;;;;18.06;72.86;99823.44;5486595;26;20067;-81
2024/04/26 08:28:20;;;;;;;8.57;6.22;;;;;;;18.18;75.75;99816.91;5509644;26;20152;-79
2024/04/26 08:30:46;;;;;;;9.43;6.40;;;;;;;18.07;76.93;99822.34;5523050;25;20055;-79
2024/04/26 08:33:11;;;;;;;10.82;7.03;;;;;;;18.27;74.96;99809.88;5470761;25;19998;-80
2024/04/26 08:35:37;;;;;;;9.15;6.75;;;;;;;18.39;79.73;99821.16;5486098;26;20009;-79
2024/04/26 08:38:03;;;;;;;9.10;6.18;;;;;;;18.24;78.33;99813.09;5486031;25;20009;-78
2024/04/26 08:40:29;;;;;;;8.82;5.70;;;;;;;18.10;69.49;99814.78;5486081;26;19994;-79
2024/04/26 08:42:56;;;;;;;8.73;5.50;;;;;;;18.56;72.78;99823.50;5464918;26;19995;-81
2024/04/26 08:45:22;;;;;;;8.25;5.47;;;;;;;18.60;72.73;99829.16;5486211;26;20010;-81
2024/04/26 08:47:50;;;;;;;7.82;5.60;;;;;;;19.02;72.15;99841.38;5485908;26;20346;-79
2024/04/26 08:50:19;;;;;;;9.38;5.65;;;;;;;18.87;66.60;99829.56;5485925;26;20010;-79
2024/04/26 08:52:44;;;;;;;7.55;5.22;;;;;;;18.59;61.71;99835.63;5486165;26;20032;-80
2024/04/26 08:55:10;;;;;;;16.70;6.72;;;;;;;18.01;66.48;99828.84;5484351;26;20002;-79
2024/04/26 08:57:37;;;;;;;7.68;5.45;;;;;;;17.81;72.20;99780.28;5486231;26;20342;-80
2024/04/26 09:00:04;;;;;;;9.60;5.43;;;;;;;18.41;69.73;99837.88;5486185;26;20010;-80
2024/04/26 09:02:31;;;;;;;9.40;5.30;;;;;;;18.67;67.00;99826.94;5486417;26;20013;-80
2024/04/26 09:04:57;;;;;;;7.57;5.57;;;;;;;18.52;64.16;99827.84;5485746;26;19994;-79
2024/04/26 09:07:22;;;;;;;8.38;5.75;;;;;;;18.61;71.96;99825.34;5485796;26;20018;-80
2024/04/26 09:09:48;;;;;;;8.57;5.93;;;;;;;18.38;71.14;99818.72;5485717;26;19998;-80
2024/04/26 09:12:15;;;;;;;8.77;5.88;;;;;;;18.42;66.40;99839.50;5485398;26;20100;-79
2024/04/26 09:14:40;;;;;;;8.60;5.53;;;;;;;18.60;68.12;99834.56;5481090;26;20319;-80
2024/04/26 09:17:07;;;;;;;10.13;5.72;;;;;;;18.28;68.00;99824.97;5483492;26;20540;-78
2024/04/26 09:19:33;;;;;;;7.37;5.30;;;;;;;18.36;62.58;99789.28;5488688;26;20026;-78
2024/04/26 09:21:59;;;;;;;8.68;5.18;;;;;;;18.83;62.38;99827.72;5489277;26;20013;-80
2024/04/26 09:24:24;;;;;;;8.13;5.70;;;;;;;18.99;62.07;99814.91;5481657;26;20009;-81
2024/04/26 09:26:50;;;;;;;7.28;5.45;;;;;;;19.32;61.01;99817.91;5454344;26;20003;-82
2024/04/26 09:29:15;;;;;;;7.35;5.30;;;;;;;19.79;58.78;99800.19;5488380;26;20002;-82
2024/04/26 09:31:42;;;;;;;10.10;5.45;;;;;;;19.52;64.14;99809.63;5488958;26;20074;-80
2024/04/26 09:34:10;;;;;;;7.90;5.60;;;;;;;19.30;61.40;99795.75;5487967;26;20002;-79
2024/04/26 09:36:38;;;;;;;7.18;5.10;;;;;;;20.05;57.24;99828.59;5463144;26;20005;-77
2024/04/26 09:39:04;;;;;;;;;;;;;;;20.02;59.37;99826.47;5486268;26;20058;-78
2024/04/26 09:41:32;;;;;;;8.02;6.03;;;;;;;19.71;65.27;99817.06;5488547;26;19936;-77
2024/04/26 09:43:57;;;;;;;8.35;5.80;;;;;;;19.75;61.20;99788.34;5488365;26;19994;-79
2024/04/26 09:46:25;;;;;;;7.30;5.13;;;;;;;19.85;59.56;99807.16;5488671;26;20017;-79
2024/04/26 09:48:53;;;;;;;;;;;;;;;20.28;63.57;99816.13;5472588;26;20011;-78
2024/04/26 09:51:18;;;;;;;8.45;5.40;;;;;;;20.31;67.23;99820.19;5451974;26;19957;-77
2024/04/26 09:53:45;;;;;;;7.05;4.97;;;;;;;19.99;57.08;99802.69;5462325;26;20013;-77
2024/04/26 09:56:11;;;;;;;7.10;5.30;;;;;;;19.72;69.28;99814.06;5464946;26;20007;-77
2024/04/26 09:58:37;;;;;;;7.60;5.18;;;;;;;19.87;60.31;99818.50;5480916;26;19998;-78
2024/04/26 10:01:04;;;;;;;7.50;5.53;;;;;;;20.15;59.78;99824.19;5457906;26;20010;-78
2024/04/26 10:03:33;;;;;;;6.95;4.97;;;;;;;20.37;62.26;99815.50;5479667;26;20012;-78
2024/04/26 10:06:03;;;;;;;7.22;5.03;;;;;;;20.15;58.52;99829.59;5471442;26;20011;-77
2024/04/26 10:08:33;;;;;;;9.30;5.55;;;;;;;20.81;66.73;99822.53;5490799;26;19998;-78
2024/04/26 10:11:09;;;;;;;7.85;5.07;;;;;;;20.98;57.09;99811.16;5467011;26;20472;-78
2024/04/26 10:13:56;;;;;;;9.13;5.32;;;;;;;21.12;58.88;99809.31;5481022;26;19990;-78
2024/04/26 10:16:31;;;;;;;8.87;5.50;;;;;;;21.09;62.03;99826.19;5467217;26;19998;-78
2024/04/26 10:18:56;;;;;;;7.22;5.22;;;;;;;20.97;57.70;99812.28;5490225;26;19995;-77
2024/04/26 10:21:23;;;;;;;7.03;4.82;;;;;;;21.71;57.14;99798.06;5467432;26;20044;-77
2024/04/26 10:23:59;;;;;;;6.82;4.32;;;;;;;20.83;49.88;99834.69;5482593;26;19990;-78
2024/04/26 10:26:25;;;;;;;7.75;5.22;;;;;;;20.87;58.01;99815.94;5486739;26;20342;-78
2024/04/26 10:28:50;;;;;;;7.85;5.15;;;;;;;21.20;58.01;99813.28;5475294;26;20050;-80
2024/04/26 10:31:25;;;;;;;7.22;4.80;;;;;;;21.45;55.93;99812.06;5487032;26;20038;-78
2024/04/26 10:33:50;;;;;;;6.68;5.00;;;;;;;21.22;53.83;99802.94;5460667;26;19999;-80
2024/04/26 10:36:19;;;;;;;8.73;5.35;;;;;;;21.71;54.54;99804.28;5469157;26;20334;-78
2024/04/26 10:38:48;;;;;;;8.05;5.13;;;;;;;22.49;46.70;99806.31;5475379;26;20030;-79
2024/04/26 10:41:20;;;;;;;12.18;7.82;;;;;;;22.91;44.48;99810.56;5476598;26;19994;-78
2024/04/26 10:43:46;;;;;;;7.70;5.40;;;;;;;22.83;51.57;99798.47;5487593;26;20030;-78
2024/04/26 10:46:16;;;;;;;6.70;4.85;;;;;;;22.65;49.97;99804.88;5487864;26;20013;-78
2024/04/26 10:48:41;;;;;;;6.82;5.10;;;;;;;22.40;43.16;99815.19;5503569;26;20008;-79
2024/04/26 10:51:09;;;;;;;6.57;4.47;;;;;;;22.55;46.17;99799.66;5478799;26;20026;-79
2024/04/26 10:53:35;;;;;;;;;;;;;;;22.66;42.10;99815.47;5477750;26;20018;-79
2024/04/26 10:56:01;;;;;;;6.25;4.10;;;;;;;23.19;44.21;99813.19;5484732;26;19924;-80
2024/04/26 10:58:40;;;;;;;6.18;4.68;;;;;;;23.14;45.56;99810.59;5482041;26;19993;-80
2024/04/26 11:01:24;;;;;;;5.97;4.18;;;;;;;23.33;44.61;99811.19;5451939;26;19998;-81
2024/04/26 11:03:52;;;;;;;6.22;4.43;;;;;;;22.13;43.67;99788.00;5475534;26;19994;-78
2024/04/26 11:06:44;;;;;;;6.45;4.28;;;;;;;22.88;44.37;99813.88;5486876;26;20321;-80
2024/04/26 11:09:13;;;;;;;5.95;4.05;;;;;;;23.04;44.48;99811.63;5479304;26;19998;-80
2024/04/26 11:11:58;;;;;;;5.40;4.00;;;;;;;23.05;44.53;99786.06;5459714;26;20102;-80
2024/04/26 11:14:25;;;;;;;5.60;3.90;;;;;;;23.07;42.83;99805.59;5483931;26;20002;-80
2024/04/26 11:16:56;;;;;;;5.27;4.10;;;;;;;22.99;44.37;99809.03;5476869;26;20074;-80
2024/04/26 11:19:26;;;;;;;5.65;3.85;;;;;;;23.19;43.28;99811.28;5478645;26;19998;-79
2024/04/26 11:21:52;;;;;;;7.05;4.43;;;;;;;23.76;43.01;99804.38;5482435;26;20329;-80